Bookmark and Share
Track history (hours):
 

Tohshi

Last reported at 2014-Apr-10 12:13 UTC. Time now 2014-Apr-16 22:19 UTC.
Position N 26°19' E 055°58'.

Length 333 m; beam 60 m.

Type: Tanker. MMSI: 372582000.

NotesDate/timePositionNaut miles runAvg speedWind from/ knotsBaromVisibWave heightAir tempDewpointWater temp
2014-Apr-10 12:13N 26°19' E 055°58'7011.9
2014-Apr-10 06:21N 26°10' E 054°41'911.6
2014-Apr-10 05:33N 26°11' E 054°31'1111.3
2014-Apr-10 04:34N 26°13' E 054°19'1312.6
2014-Apr-10 03:33N 26°14' E 054°04'1312.5
2014-Apr-10 02:33N 26°16' E 053°51'1312.5
2014-Apr-10 01:32N 26°21' E 053°38'1312.5
2014-Apr-10 00:30N 26°28' E 053°25'2311.8
2014-Apr-09 22:33N 26°32' E 053°00'1211.8
2014-Apr-09 21:32N 26°32' E 052°47'38 1.1
2014-Apr-08 11:17N 26°33' E 052°04'0 0.0
2014-Apr-08 02:33N 26°33' E 052°04'6 5.7
2014-Apr-08 01:33N 26°33' E 052°10'9 7.4
2014-Apr-08 00:21N 26°28' E 052°18'8 8.8
2014-Apr-07 23:25N 26°20' E 052°20'1011.3
2014-Apr-07 22:33N 26°10' E 052°22'3110.2
2014-Apr-07 19:33N 25°40' E 052°31'3 0.2
2014-Apr-07 02:23N 25°39' E 052°27'0 0.6
2014-Apr-07 01:33N 25°38' E 052°28'2 2.3
2014-Apr-07 00:33N 25°40' E 052°28'1 0.3
2014-Apr-06 22:32N 25°41' E 052°29'0 0.0
2014-Apr-06 19:14N 25°41' E 052°29'0 0.0
2014-Apr-06 17:14N 25°41' E 052°29'0 0.0
2014-Apr-06 12:32N 25°41' E 052°29'0 0.0
2014-Apr-06 11:23N 25°41' E 052°29'0 0.0
2014-Apr-05 00:29N 25°41' E 052°29'0 0.0
2014-Apr-04 23:14N 25°41' E 052°29'0 0.0
2014-Apr-04 21:29N 25°41' E 052°29'0 0.0
2014-Apr-04 20:26N 25°41' E 052°29'0 0.1
2014-Apr-04 19:32N 25°41' E 052°29'0 0.0
2014-Apr-04 18:26N 25°41' E 052°29'0 0.0
2014-Apr-04 17:32N 25°41' E 052°29'0 0.0
2014-Apr-04 16:23N 25°41' E 052°29'0 0.0
2014-Apr-04 15:32N 25°41' E 052°29'2 0.0
2014-Apr-02 19:22N 25°40' E 052°31'15 8.1
2014-Apr-02 17:32N 25°48' E 052°45'1313.2
2014-Apr-02 16:33N 25°52' E 052°59'4213.9
2014-Apr-02 13:31N 26°06' E 053°43'1715.6
2014-Apr-02 12:27N 26°12' E 054°00'8213.4
2014-Apr-02 06:20N 26°22' E 055°31'  

Dump ship's entire track history

sailing weather and tide predictions

Tohshi — 3EJO5 — position and weather